Terminal Aerodrome Forecast
Issued by NWS Sioux Falls, SD

Home | Current Version | Previous Version | Text Only | Print | Product List | Glossary Off
Versions: 1 2 3 4 5 6 7 8 9 10 11 12 13 14 15 16 17 18 19 20 21 22 23 24 25 26 27 28 29 30 31 32 33 34 35 36 37 38 39 40 41

941
FTUS43 KFSD 110917 AAA
TAFSUX
TAF AMD
KSUX 110917Z 1109/1206 06006KT P6SM OVC035
     FM111100 09005KT P6SM OVC028
     FM111800 14004KT P6SM -SN OVC015
     FM112000 17010KT 2SM -SN BR OVC012
     FM112300 10007KT P6SM OVC015
     FM120300 33005KT P6SM OVC025=

USA.gov is the U.S. government's official web portal to all federal, state and local government web resources and services.